sensor_id;sensor_type;location;lat;lon;timestamp;temperature;humidity
13328;DHT22;6733;51.044;3.746;2023-12-28T00:01:36;10.90;81.80
13328;DHT22;6733;51.044;3.746;2023-12-28T00:04:02;10.90;82.00
13328;DHT22;6733;51.044;3.746;2023-12-28T00:06:29;10.90;82.20
13328;DHT22;6733;51.044;3.746;2023-12-28T00:08:55;10.80;82.30
13328;DHT22;6733;51.044;3.746;2023-12-28T00:11:21;10.80;82.40
13328;DHT22;6733;51.044;3.746;2023-12-28T00:13:47;10.80;82.50
13328;DHT22;6733;51.044;3.746;2023-12-28T00:16:13;10.80;82.60
13328;DHT22;6733;51.044;3.746;2023-12-28T00:18:39;10.80;82.80
13328;DHT22;6733;51.044;3.746;2023-12-28T00:21:06;10.80;83.00
13328;DHT22;6733;51.044;3.746;2023-12-28T00:23:32;10.80;83.10
13328;DHT22;6733;51.044;3.746;2023-12-28T00:25:58;10.70;83.20
13328;DHT22;6733;51.044;3.746;2023-12-28T00:28:24;10.80;83.10
13328;DHT22;6733;51.044;3.746;2023-12-28T00:30:50;10.80;83.20
13328;DHT22;6733;51.044;3.746;2023-12-28T00:33:16;10.80;83.30
13328;DHT22;6733;51.044;3.746;2023-12-28T00:35:43;10.80;83.30
13328;DHT22;6733;51.044;3.746;2023-12-28T00:38:09;10.80;83.30
13328;DHT22;6733;51.044;3.746;2023-12-28T00:40:35;10.80;83.50
13328;DHT22;6733;51.044;3.746;2023-12-28T00:43:01;10.80;83.50
13328;DHT22;6733;51.044;3.746;2023-12-28T00:45:27;10.80;83.50
13328;DHT22;6733;51.044;3.746;2023-12-28T00:47:53;10.80;83.70
13328;DHT22;6733;51.044;3.746;2023-12-28T00:50:22;10.70;83.90
13328;DHT22;6733;51.044;3.746;2023-12-28T00:52:48;10.70;84.10
13328;DHT22;6733;51.044;3.746;2023-12-28T00:55:15;10.70;84.20
13328;DHT22;6733;51.044;3.746;2023-12-28T00:57:41;10.70;84.20
13328;DHT22;6733;51.044;3.746;2023-12-28T01:00:07;10.70;84.50
13328;DHT22;6733;51.044;3.746;2023-12-28T01:02:34;10.70;84.60
13328;DHT22;6733;51.044;3.746;2023-12-28T01:05:00;10.70;84.70
13328;DHT22;6733;51.044;3.746;2023-12-28T01:07:26;10.70;84.70
13328;DHT22;6733;51.044;3.746;2023-12-28T01:09:52;10.60;84.80
13328;DHT22;6733;51.044;3.746;2023-12-28T01:12:18;10.60;85.10
13328;DHT22;6733;51.044;3.746;2023-12-28T01:14:45;10.60;85.10
13328;DHT22;6733;51.044;3.746;2023-12-28T01:17:11;10.60;85.10
13328;DHT22;6733;51.044;3.746;2023-12-28T01:19:37;10.70;85.00
13328;DHT22;6733;51.044;3.746;2023-12-28T01:22:04;10.60;85.20
13328;DHT22;6733;51.044;3.746;2023-12-28T01:24:30;10.60;85.30
13328;DHT22;6733;51.044;3.746;2023-12-28T01:26:56;10.60;85.40
13328;DHT22;6733;51.044;3.746;2023-12-28T01:29:22;10.60;85.50
13328;DHT22;6733;51.044;3.746;2023-12-28T01:31:48;10.50;85.70
13328;DHT22;6733;51.044;3.746;2023-12-28T01:34:15;10.50;85.90
13328;DHT22;6733;51.044;3.746;2023-12-28T01:36:41;10.50;85.90
13328;DHT22;6733;51.044;3.746;2023-12-28T01:39:10;10.50;86.10
13328;DHT22;6733;51.044;3.746;2023-12-28T01:41:41;10.60;86.10
13328;DHT22;6733;51.044;3.746;2023-12-28T01:44:07;10.60;85.90
13328;DHT22;6733;51.044;3.746;2023-12-28T01:46:33;10.70;85.70
13328;DHT22;6733;51.044;3.746;2023-12-28T01:49:00;10.60;85.50
13328;DHT22;6733;51.044;3.746;2023-12-28T01:51:27;10.60;85.50
13328;DHT22;6733;51.044;3.746;2023-12-28T01:53:54;10.60;85.50
13328;DHT22;6733;51.044;3.746;2023-12-28T01:56:21;10.60;85.50
13328;DHT22;6733;51.044;3.746;2023-12-28T01:58:49;10.60;85.50
13328;DHT22;6733;51.044;3.746;2023-12-28T02:01:16;10.60;85.60
13328;DHT22;6733;51.044;3.746;2023-12-28T02:03:43;10.60;85.60
13328;DHT22;6733;51.044;3.746;2023-12-28T02:06:09;10.60;85.70
13328;DHT22;6733;51.044;3.746;2023-12-28T02:08:36;10.60;85.70
13328;DHT22;6733;51.044;3.746;2023-12-28T02:11:02;10.50;85.80
13328;DHT22;6733;51.044;3.746;2023-12-28T02:13:29;10.50;85.70
13328;DHT22;6733;51.044;3.746;2023-12-28T02:16:21;10.60;85.80
13328;DHT22;6733;51.044;3.746;2023-12-28T02:18:50;10.60;85.50
13328;DHT22;6733;51.044;3.746;2023-12-28T02:21:19;10.70;85.30
13328;DHT22;6733;51.044;3.746;2023-12-28T02:23:49;10.70;85.10
13328;DHT22;6733;51.044;3.746;2023-12-28T02:26:16;10.70;85.00
13328;DHT22;6733;51.044;3.746;2023-12-28T02:28:43;10.60;85.10
13328;DHT22;6733;51.044;3.746;2023-12-28T03:01:43;10.50;85.70
13328;DHT22;6733;51.044;3.746;2023-12-28T03:04:09;10.50;85.60
13328;DHT22;6733;51.044;3.746;2023-12-28T03:06:35;10.60;85.40
13328;DHT22;6733;51.044;3.746;2023-12-28T03:09:04;10.60;85.30
13328;DHT22;6733;51.044;3.746;2023-12-28T03:11:30;10.60;85.30
13328;DHT22;6733;51.044;3.746;2023-12-28T03:13:57;10.60;85.00
13328;DHT22;6733;51.044;3.746;2023-12-28T03:16:23;10.60;84.90
13328;DHT22;6733;51.044;3.746;2023-12-28T03:18:49;10.60;84.80
13328;DHT22;6733;51.044;3.746;2023-12-28T03:21:15;10.70;84.70
13328;DHT22;6733;51.044;3.746;2023-12-28T03:23:41;10.60;84.60
13328;DHT22;6733;51.044;3.746;2023-12-28T03:26:08;10.60;84.60
13328;DHT22;6733;51.044;3.746;2023-12-28T03:28:34;10.60;84.50
13328;DHT22;6733;51.044;3.746;2023-12-28T03:31:02;10.60;84.60
13328;DHT22;6733;51.044;3.746;2023-12-28T03:33:29;10.60;84.60
13328;DHT22;6733;51.044;3.746;2023-12-28T03:35:55;10.60;84.60
13328;DHT22;6733;51.044;3.746;2023-12-28T03:38:21;10.50;84.70
13328;DHT22;6733;51.044;3.746;2023-12-28T03:40:47;10.50;84.80
13328;DHT22;6733;51.044;3.746;2023-12-28T03:43:16;10.50;84.70
13328;DHT22;6733;51.044;3.746;2023-12-28T03:45:42;10.50;84.70
13328;DHT22;6733;51.044;3.746;2023-12-28T03:48:08;10.50;84.80
13328;DHT22;6733;51.044;3.746;2023-12-28T03:50:34;10.60;84.60
13328;DHT22;6733;51.044;3.746;2023-12-28T03:53:01;10.60;84.40
13328;DHT22;6733;51.044;3.746;2023-12-28T03:55:27;10.60;84.20
13328;DHT22;6733;51.044;3.746;2023-12-28T03:57:53;10.60;84.00
13328;DHT22;6733;51.044;3.746;2023-12-28T04:00:19;10.60;83.80
13328;DHT22;6733;51.044;3.746;2023-12-28T04:02:46;10.70;83.70
13328;DHT22;6733;51.044;3.746;2023-12-28T04:05:13;10.70;83.40
13328;DHT22;6733;51.044;3.746;2023-12-28T04:07:39;10.80;83.10
13328;DHT22;6733;51.044;3.746;2023-12-28T04:10:05;10.80;82.80
13328;DHT22;6733;51.044;3.746;2023-12-28T04:12:32;10.90;82.70
13328;DHT22;6733;51.044;3.746;2023-12-28T04:14:58;10.90;82.50
13328;DHT22;6733;51.044;3.746;2023-12-28T04:17:24;10.90;82.30
13328;DHT22;6733;51.044;3.746;2023-12-28T04:19:50;11.00;82.00
13328;DHT22;6733;51.044;3.746;2023-12-28T04:22:16;10.90;81.90
13328;DHT22;6733;51.044;3.746;2023-12-28T04:24:42;10.90;81.90
13328;DHT22;6733;51.044;3.746;2023-12-28T04:27:08;10.90;81.80
13328;DHT22;6733;51.044;3.746;2023-12-28T04:29:35;10.80;82.00
13328;DHT22;6733;51.044;3.746;2023-12-28T04:32:01;10.70;82.10
13328;DHT22;6733;51.044;3.746;2023-12-28T04:34:27;10.70;82.20
13328;DHT22;6733;51.044;3.746;2023-12-28T04:36:54;10.60;82.50
13328;DHT22;6733;51.044;3.746;2023-12-28T04:39:20;10.60;82.70
13328;DHT22;6733;51.044;3.746;2023-12-28T04:41:46;10.70;82.70
13328;DHT22;6733;51.044;3.746;2023-12-28T04:44:12;10.70;82.40
13328;DHT22;6733;51.044;3.746;2023-12-28T04:46:38;10.80;82.50
13328;DHT22;6733;51.044;3.746;2023-12-28T04:49:07;10.80;82.50
13328;DHT22;6733;51.044;3.746;2023-12-28T04:51:33;10.80;82.30
13328;DHT22;6733;51.044;3.746;2023-12-28T04:53:59;10.80;82.30
13328;DHT22;6733;51.044;3.746;2023-12-28T04:56:25;10.90;82.20
13328;DHT22;6733;51.044;3.746;2023-12-28T04:58:51;10.90;82.00
13328;DHT22;6733;51.044;3.746;2023-12-28T05:01:17;10.90;81.80
13328;DHT22;6733;51.044;3.746;2023-12-28T05:03:44;10.90;81.70
13328;DHT22;6733;51.044;3.746;2023-12-28T05:06:10;10.80;81.80
13328;DHT22;6733;51.044;3.746;2023-12-28T05:08:36;10.70;82.00
13328;DHT22;6733;51.044;3.746;2023-12-28T05:11:02;10.70;82.30
13328;DHT22;6733;51.044;3.746;2023-12-28T05:13:28;10.60;82.50
13328;DHT22;6733;51.044;3.746;2023-12-28T05:15:54;10.60;82.70
13328;DHT22;6733;51.044;3.746;2023-12-28T05:18:20;10.50;82.80
13328;DHT22;6733;51.044;3.746;2023-12-28T05:20:47;10.50;82.90
13328;DHT22;6733;51.044;3.746;2023-12-28T05:23:13;10.50;83.00
13328;DHT22;6733;51.044;3.746;2023-12-28T05:25:39;10.50;83.10
13328;DHT22;6733;51.044;3.746;2023-12-28T05:28:05;10.50;83.20
13328;DHT22;6733;51.044;3.746;2023-12-28T05:30:31;10.50;83.00
13328;DHT22;6733;51.044;3.746;2023-12-28T05:32:57;10.60;82.70
13328;DHT22;6733;51.044;3.746;2023-12-28T05:35:23;10.60;82.50
13328;DHT22;6733;51.044;3.746;2023-12-28T05:37:50;10.60;82.40
13328;DHT22;6733;51.044;3.746;2023-12-28T05:40:16;10.60;82.40
13328;DHT22;6733;51.044;3.746;2023-12-28T05:42:42;10.60;82.10
13328;DHT22;6733;51.044;3.746;2023-12-28T05:45:08;10.60;82.00
13328;DHT22;6733;51.044;3.746;2023-12-28T05:47:35;10.70;81.90
13328;DHT22;6733;51.044;3.746;2023-12-28T05:50:01;10.70;81.60
13328;DHT22;6733;51.044;3.746;2023-12-28T05:52:29;10.70;81.40
13328;DHT22;6733;51.044;3.746;2023-12-28T05:54:55;10.70;81.20
13328;DHT22;6733;51.044;3.746;2023-12-28T05:57:22;10.70;81.20
13328;DHT22;6733;51.044;3.746;2023-12-28T05:59:48;10.60;81.40
13328;DHT22;6733;51.044;3.746;2023-12-28T06:02:14;10.60;81.40
13328;DHT22;6733;51.044;3.746;2023-12-28T06:04:41;10.50;81.60
13328;DHT22;6733;51.044;3.746;2023-12-28T06:07:07;10.50;81.70
13328;DHT22;6733;51.044;3.746;2023-12-28T06:09:33;10.40;81.90
13328;DHT22;6733;51.044;3.746;2023-12-28T06:11:59;10.40;82.10
13328;DHT22;6733;51.044;3.746;2023-12-28T06:14:25;10.40;82.00
13328;DHT22;6733;51.044;3.746;2023-12-28T06:16:52;10.40;82.20
13328;DHT22;6733;51.044;3.746;2023-12-28T06:19:18;10.30;82.40
13328;DHT22;6733;51.044;3.746;2023-12-28T06:21:44;10.30;82.10
13328;DHT22;6733;51.044;3.746;2023-12-28T06:24:10;10.30;82.10
13328;DHT22;6733;51.044;3.746;2023-12-28T06:26:43;10.30;82.10
13328;DHT22;6733;51.044;3.746;2023-12-28T06:29:10;10.30;82.00
13328;DHT22;6733;51.044;3.746;2023-12-28T06:31:37;10.30;81.90
13328;DHT22;6733;51.044;3.746;2023-12-28T06:34:03;10.20;82.10
13328;DHT22;6733;51.044;3.746;2023-12-28T06:36:30;10.20;82.20
13328;DHT22;6733;51.044;3.746;2023-12-28T06:38:56;10.20;82.20
13328;DHT22;6733;51.044;3.746;2023-12-28T06:41:22;10.20;82.20
13328;DHT22;6733;51.044;3.746;2023-12-28T06:43:48;10.20;82.20
13328;DHT22;6733;51.044;3.746;2023-12-28T06:46:15;10.20;82.10
13328;DHT22;6733;51.044;3.746;2023-12-28T06:48:41;10.20;82.00
13328;DHT22;6733;51.044;3.746;2023-12-28T06:51:10;10.20;82.00
13328;DHT22;6733;51.044;3.746;2023-12-28T06:53:41;10.10;82.00
13328;DHT22;6733;51.044;3.746;2023-12-28T06:56:09;10.10;82.00
13328;DHT22;6733;51.044;3.746;2023-12-28T06:58:35;10.10;81.90
13328;DHT22;6733;51.044;3.746;2023-12-28T07:01:04;10.10;82.00
13328;DHT22;6733;51.044;3.746;2023-12-28T07:03:30;10.10;82.00
13328;DHT22;6733;51.044;3.746;2023-12-28T07:05:59;10.10;82.00
13328;DHT22;6733;51.044;3.746;2023-12-28T07:08:25;10.10;82.00
13328;DHT22;6733;51.044;3.746;2023-12-28T07:10:51;10.10;81.90
13328;DHT22;6733;51.044;3.746;2023-12-28T07:13:17;10.10;81.80
13328;DHT22;6733;51.044;3.746;2023-12-28T07:15:43;10.20;81.60
13328;DHT22;6733;51.044;3.746;2023-12-28T07:18:10;10.30;81.30
13328;DHT22;6733;51.044;3.746;2023-12-28T07:20:36;10.30;81.00
13328;DHT22;6733;51.044;3.746;2023-12-28T07:23:02;10.30;80.70
13328;DHT22;6733;51.044;3.746;2023-12-28T07:25:29;10.40;80.70
13328;DHT22;6733;51.044;3.746;2023-12-28T07:27:55;10.40;80.60
13328;DHT22;6733;51.044;3.746;2023-12-28T07:30:21;10.40;80.60
13328;DHT22;6733;51.044;3.746;2023-12-28T07:32:47;10.40;80.40
13328;DHT22;6733;51.044;3.746;2023-12-28T07:35:13;10.40;80.40
13328;DHT22;6733;51.044;3.746;2023-12-28T07:37:39;10.40;80.30
13328;DHT22;6733;51.044;3.746;2023-12-28T07:40:06;10.50;80.50
13328;DHT22;6733;51.044;3.746;2023-12-28T07:42:32;10.40;80.80
13328;DHT22;6733;51.044;3.746;2023-12-28T07:44:59;10.40;80.90
13328;DHT22;6733;51.044;3.746;2023-12-28T07:47:25;10.40;80.90
13328;DHT22;6733;51.044;3.746;2023-12-28T07:49:51;10.30;80.90
13328;DHT22;6733;51.044;3.746;2023-12-28T07:52:17;10.20;80.80
13328;DHT22;6733;51.044;3.746;2023-12-28T07:54:43;10.20;80.80
13328;DHT22;6733;51.044;3.746;2023-12-28T07:57:09;10.20;80.80
13328;DHT22;6733;51.044;3.746;2023-12-28T07:59:35;10.10;80.80
13328;DHT22;6733;51.044;3.746;2023-12-28T08:02:01;10.10;80.80
13328;DHT22;6733;51.044;3.746;2023-12-28T08:04:28;10.10;80.80
13328;DHT22;6733;51.044;3.746;2023-12-28T08:06:54;10.10;80.80
13328;DHT22;6733;51.044;3.746;2023-12-28T08:09:20;10.10;80.60
13328;DHT22;6733;51.044;3.746;2023-12-28T08:11:46;10.20;80.70
13328;DHT22;6733;51.044;3.746;2023-12-28T08:14:12;10.20;80.60
13328;DHT22;6733;51.044;3.746;2023-12-28T08:16:38;10.30;80.40
13328;DHT22;6733;51.044;3.746;2023-12-28T08:19:04;10.30;80.30
13328;DHT22;6733;51.044;3.746;2023-12-28T08:21:31;10.30;80.20
13328;DHT22;6733;51.044;3.746;2023-12-28T08:23:57;10.30;80.40
13328;DHT22;6733;51.044;3.746;2023-12-28T08:26:23;10.30;80.40
13328;DHT22;6733;51.044;3.746;2023-12-28T08:28:49;10.30;80.30
13328;DHT22;6733;51.044;3.746;2023-12-28T08:31:15;10.30;80.40
13328;DHT22;6733;51.044;3.746;2023-12-28T08:33:41;10.30;80.40
13328;DHT22;6733;51.044;3.746;2023-12-28T08:36:08;10.40;80.30
13328;DHT22;6733;51.044;3.746;2023-12-28T08:38:34;10.50;80.00
13328;DHT22;6733;51.044;3.746;2023-12-28T08:41:01;10.50;79.60
13328;DHT22;6733;51.044;3.746;2023-12-28T08:43:29;10.60;79.50
13328;DHT22;6733;51.044;3.746;2023-12-28T08:45:55;10.70;79.20
13328;DHT22;6733;51.044;3.746;2023-12-28T08:48:22;10.70;79.00
13328;DHT22;6733;51.044;3.746;2023-12-28T08:50:48;10.80;78.90
13328;DHT22;6733;51.044;3.746;2023-12-28T08:53:15;10.80;78.70
13328;DHT22;6733;51.044;3.746;2023-12-28T08:55:41;10.80;78.40
13328;DHT22;6733;51.044;3.746;2023-12-28T08:58:07;10.80;78.50
13328;DHT22;6733;51.044;3.746;2023-12-28T09:00:33;10.90;78.60
13328;DHT22;6733;51.044;3.746;2023-12-28T09:02:59;10.90;78.40
13328;DHT22;6733;51.044;3.746;2023-12-28T09:05:25;10.90;78.40
13328;DHT22;6733;51.044;3.746;2023-12-28T09:07:53;11.00;78.00
13328;DHT22;6733;51.044;3.746;2023-12-28T09:10:19;11.00;77.90
13328;DHT22;6733;51.044;3.746;2023-12-28T09:12:45;11.10;77.70
13328;DHT22;6733;51.044;3.746;2023-12-28T09:15:12;11.10;77.40
13328;DHT22;6733;51.044;3.746;2023-12-28T09:17:39;11.20;76.90
13328;DHT22;6733;51.044;3.746;2023-12-28T09:20:05;11.20;76.70
13328;DHT22;6733;51.044;3.746;2023-12-28T09:22:32;11.20;76.60
13328;DHT22;6733;51.044;3.746;2023-12-28T09:24:59;11.20;76.60
13328;DHT22;6733;51.044;3.746;2023-12-28T09:27:25;11.20;76.50
13328;DHT22;6733;51.044;3.746;2023-12-28T09:29:51;11.20;76.40
13328;DHT22;6733;51.044;3.746;2023-12-28T09:32:17;11.20;76.50
13328;DHT22;6733;51.044;3.746;2023-12-28T09:34:43;11.30;76.40
13328;DHT22;6733;51.044;3.746;2023-12-28T09:37:09;11.30;76.10
13328;DHT22;6733;51.044;3.746;2023-12-28T09:39:36;11.30;76.10
13328;DHT22;6733;51.044;3.746;2023-12-28T09:42:06;11.20;75.90
13328;DHT22;6733;51.044;3.746;2023-12-28T09:44:36;11.30;75.80
13328;DHT22;6733;51.044;3.746;2023-12-28T09:47:04;11.40;75.60
13328;DHT22;6733;51.044;3.746;2023-12-28T09:49:32;11.30;75.60
13328;DHT22;6733;51.044;3.746;2023-12-28T09:51:59;11.30;75.50
13328;DHT22;6733;51.044;3.746;2023-12-28T09:54:26;11.30;75.60
13328;DHT22;6733;51.044;3.746;2023-12-28T09:56:52;11.40;75.70
13328;DHT22;6733;51.044;3.746;2023-12-28T09:59:19;11.50;75.40
13328;DHT22;6733;51.044;3.746;2023-12-28T10:01:46;11.50;75.20
13328;DHT22;6733;51.044;3.746;2023-12-28T10:04:13;11.60;75.00
13328;DHT22;6733;51.044;3.746;2023-12-28T10:06:40;11.70;74.80
13328;DHT22;6733;51.044;3.746;2023-12-28T10:09:06;11.80;74.30
13328;DHT22;6733;51.044;3.746;2023-12-28T10:11:33;11.80;73.90
13328;DHT22;6733;51.044;3.746;2023-12-28T10:14:00;11.80;74.00
13328;DHT22;6733;51.044;3.746;2023-12-28T10:16:26;11.50;74.70
13328;DHT22;6733;51.044;3.746;2023-12-28T10:18:52;11.20;76.00
13328;DHT22;6733;51.044;3.746;2023-12-28T10:21:18;11.10;76.50
13328;DHT22;6733;51.044;3.746;2023-12-28T10:23:44;11.00;77.00
13328;DHT22;6733;51.044;3.746;2023-12-28T10:26:10;10.90;77.60
13328;DHT22;6733;51.044;3.746;2023-12-28T10:28:37;10.90;77.70
13328;DHT22;6733;51.044;3.746;2023-12-28T10:31:04;10.90;77.70
13328;DHT22;6733;51.044;3.746;2023-12-28T10:33:39;11.00;77.60
13328;DHT22;6733;51.044;3.746;2023-12-28T10:36:07;10.90;77.50
13328;DHT22;6733;51.044;3.746;2023-12-28T10:38:35;11.00;77.50
13328;DHT22;6733;51.044;3.746;2023-12-28T10:41:07;11.00;77.30
13328;DHT22;6733;51.044;3.746;2023-12-28T10:44:00;10.90;77.60
13328;DHT22;6733;51.044;3.746;2023-12-28T10:46:31;11.00;77.60
13328;DHT22;6733;51.044;3.746;2023-12-28T10:49:10;10.90;77.70
13328;DHT22;6733;51.044;3.746;2023-12-28T10:51:41;10.90;77.80
13328;DHT22;6733;51.044;3.746;2023-12-28T10:54:30;10.90;77.70
13328;DHT22;6733;51.044;3.746;2023-12-28T10:57:05;11.00;77.60
13328;DHT22;6733;51.044;3.746;2023-12-28T10:59:35;10.90;77.60
13328;DHT22;6733;51.044;3.746;2023-12-28T11:02:06;10.90;77.50
13328;DHT22;6733;51.044;3.746;2023-12-28T11:04:50;10.90;77.90
13328;DHT22;6733;51.044;3.746;2023-12-28T11:07:18;10.90;77.90
13328;DHT22;6733;51.044;3.746;2023-12-28T11:09:45;10.90;77.80
13328;DHT22;6733;51.044;3.746;2023-12-28T11:12:12;11.00;77.70
13328;DHT22;6733;51.044;3.746;2023-12-28T11:14:40;11.00;77.80
13328;DHT22;6733;51.044;3.746;2023-12-28T11:17:06;11.10;77.60
13328;DHT22;6733;51.044;3.746;2023-12-28T11:19:33;11.00;77.60
13328;DHT22;6733;51.044;3.746;2023-12-28T11:22:02;11.10;77.60
13328;DHT22;6733;51.044;3.746;2023-12-28T11:24:29;11.20;77.40
13328;DHT22;6733;51.044;3.746;2023-12-28T11:26:56;11.20;77.10
13328;DHT22;6733;51.044;3.746;2023-12-28T11:29:23;11.20;77.10
13328;DHT22;6733;51.044;3.746;2023-12-28T11:31:54;11.20;77.10
13328;DHT22;6733;51.044;3.746;2023-12-28T11:34:28;11.20;76.90
13328;DHT22;6733;51.044;3.746;2023-12-28T11:36:55;11.20;77.00
13328;DHT22;6733;51.044;3.746;2023-12-28T11:39:33;11.10;77.30
13328;DHT22;6733;51.044;3.746;2023-12-28T11:44:39;11.30;76.90
13328;DHT22;6733;51.044;3.746;2023-12-28T11:49:39;11.20;76.80
13328;DHT22;6733;51.044;3.746;2023-12-28T11:52:09;11.20;76.70
13328;DHT22;6733;51.044;3.746;2023-12-28T11:54:36;11.30;76.30
13328;DHT22;6733;51.044;3.746;2023-12-28T11:57:03;11.30;76.20
13328;DHT22;6733;51.044;3.746;2023-12-28T11:59:31;11.30;76.30
13328;DHT22;6733;51.044;3.746;2023-12-28T12:01:57;11.40;75.80
13328;DHT22;6733;51.044;3.746;2023-12-28T12:04:23;11.40;76.10
13328;DHT22;6733;51.044;3.746;2023-12-28T12:06:49;11.50;76.00
13328;DHT22;6733;51.044;3.746;2023-12-28T12:09:17;11.50;75.50
13328;DHT22;6733;51.044;3.746;2023-12-28T12:11:48;11.50;75.70
13328;DHT22;6733;51.044;3.746;2023-12-28T12:14:15;11.50;75.20
13328;DHT22;6733;51.044;3.746;2023-12-28T12:16:41;11.40;75.50
13328;DHT22;6733;51.044;3.746;2023-12-28T12:19:07;11.50;75.40
13328;DHT22;6733;51.044;3.746;2023-12-28T12:21:34;11.40;75.10
13328;DHT22;6733;51.044;3.746;2023-12-28T12:24:01;11.40;75.40
13328;DHT22;6733;51.044;3.746;2023-12-28T12:26:29;11.40;75.20
13328;DHT22;6733;51.044;3.746;2023-12-28T12:28:56;11.40;75.10
13328;DHT22;6733;51.044;3.746;2023-12-28T12:31:23;11.30;75.40
13328;DHT22;6733;51.044;3.746;2023-12-28T12:33:50;11.30;75.30
13328;DHT22;6733;51.044;3.746;2023-12-28T12:36:16;11.30;75.60
13328;DHT22;6733;51.044;3.746;2023-12-28T12:38:43;11.40;75.60
13328;DHT22;6733;51.044;3.746;2023-12-28T12:41:12;11.40;75.70
13328;DHT22;6733;51.044;3.746;2023-12-28T12:43:39;11.50;75.60
13328;DHT22;6733;51.044;3.746;2023-12-28T12:46:07;11.60;75.20
13328;DHT22;6733;51.044;3.746;2023-12-28T12:48:33;11.70;74.80
13328;DHT22;6733;51.044;3.746;2023-12-28T12:51:02;11.60;74.80
13328;DHT22;6733;51.044;3.746;2023-12-28T12:53:33;11.60;74.70
13328;DHT22;6733;51.044;3.746;2023-12-28T12:56:00;11.60;74.90
13328;DHT22;6733;51.044;3.746;2023-12-28T12:58:27;11.60;74.70
13328;DHT22;6733;51.044;3.746;2023-12-28T13:00:53;11.50;74.30
13328;DHT22;6733;51.044;3.746;2023-12-28T13:03:20;11.50;74.50
13328;DHT22;6733;51.044;3.746;2023-12-28T13:05:46;11.50;74.60
13328;DHT22;6733;51.044;3.746;2023-12-28T13:08:12;11.50;74.50
13328;DHT22;6733;51.044;3.746;2023-12-28T13:10:39;11.40;74.60
13328;DHT22;6733;51.044;3.746;2023-12-28T13:13:08;11.50;74.20
13328;DHT22;6733;51.044;3.746;2023-12-28T13:15:34;11.50;74.10
13328;DHT22;6733;51.044;3.746;2023-12-28T13:18:01;11.50;73.80
13328;DHT22;6733;51.044;3.746;2023-12-28T13:20:27;11.60;73.50
13328;DHT22;6733;51.044;3.746;2023-12-28T13:22:53;11.60;73.30
13328;DHT22;6733;51.044;3.746;2023-12-28T13:25:19;11.60;73.20
13328;DHT22;6733;51.044;3.746;2023-12-28T13:27:45;11.60;73.30
13328;DHT22;6733;51.044;3.746;2023-12-28T13:30:12;11.60;73.10
13328;DHT22;6733;51.044;3.746;2023-12-28T13:32:38;11.50;73.10
13328;DHT22;6733;51.044;3.746;2023-12-28T13:35:04;11.50;72.90
13328;DHT22;6733;51.044;3.746;2023-12-28T13:37:31;11.50;72.70
13328;DHT22;6733;51.044;3.746;2023-12-28T13:39:57;11.50;73.10
13328;DHT22;6733;51.044;3.746;2023-12-28T13:42:23;11.50;73.20
13328;DHT22;6733;51.044;3.746;2023-12-28T13:44:49;11.50;73.30
13328;DHT22;6733;51.044;3.746;2023-12-28T13:47:16;11.60;73.00
13328;DHT22;6733;51.044;3.746;2023-12-28T13:49:42;11.60;72.90
13328;DHT22;6733;51.044;3.746;2023-12-28T13:52:09;11.60;72.90
13328;DHT22;6733;51.044;3.746;2023-12-28T13:54:35;11.60;72.90
13328;DHT22;6733;51.044;3.746;2023-12-28T13:57:01;11.60;72.40
13328;DHT22;6733;51.044;3.746;2023-12-28T13:59:27;11.60;72.60
13328;DHT22;6733;51.044;3.746;2023-12-28T14:01:54;11.60;72.50
13328;DHT22;6733;51.044;3.746;2023-12-28T14:04:20;11.60;71.70
13328;DHT22;6733;51.044;3.746;2023-12-28T14:06:46;11.60;72.20
13328;DHT22;6733;51.044;3.746;2023-12-28T14:09:12;11.60;72.30
13328;DHT22;6733;51.044;3.746;2023-12-28T14:11:38;11.60;72.20
13328;DHT22;6733;51.044;3.746;2023-12-28T14:14:04;11.60;72.50
13328;DHT22;6733;51.044;3.746;2023-12-28T14:16:31;11.60;72.70
13328;DHT22;6733;51.044;3.746;2023-12-28T14:18:57;11.50;72.70
13328;DHT22;6733;51.044;3.746;2023-12-28T14:21:23;11.50;72.90
13328;DHT22;6733;51.044;3.746;2023-12-28T14:23:49;11.50;72.70
13328;DHT22;6733;51.044;3.746;2023-12-28T14:26:17;11.50;72.90
13328;DHT22;6733;51.044;3.746;2023-12-28T14:28:44;11.40;73.00
13328;DHT22;6733;51.044;3.746;2023-12-28T14:31:11;11.50;73.00
13328;DHT22;6733;51.044;3.746;2023-12-28T14:33:39;11.40;73.10
13328;DHT22;6733;51.044;3.746;2023-12-28T14:36:34;11.40;73.40
13328;DHT22;6733;51.044;3.746;2023-12-28T14:39:02;11.40;73.40
13328;DHT22;6733;51.044;3.746;2023-12-28T14:41:31;11.40;73.60
13328;DHT22;6733;51.044;3.746;2023-12-28T14:43:57;11.30;73.60
13328;DHT22;6733;51.044;3.746;2023-12-28T14:46:24;11.30;73.40
13328;DHT22;6733;51.044;3.746;2023-12-28T14:48:52;11.30;73.50
13328;DHT22;6733;51.044;3.746;2023-12-28T14:51:19;11.30;73.60
13328;DHT22;6733;51.044;3.746;2023-12-28T14:53:45;11.40;73.40
13328;DHT22;6733;51.044;3.746;2023-12-28T14:56:11;11.30;73.60
13328;DHT22;6733;51.044;3.746;2023-12-28T14:58:38;11.30;73.70
13328;DHT22;6733;51.044;3.746;2023-12-28T15:01:05;11.30;73.60
13328;DHT22;6733;51.044;3.746;2023-12-28T15:03:32;11.30;73.70
13328;DHT22;6733;51.044;3.746;2023-12-28T15:05:58;11.30;73.40
13328;DHT22;6733;51.044;3.746;2023-12-28T15:08:25;11.30;73.60
13328;DHT22;6733;51.044;3.746;2023-12-28T15:10:51;11.30;73.80
13328;DHT22;6733;51.044;3.746;2023-12-28T15:13:18;11.30;73.70
13328;DHT22;6733;51.044;3.746;2023-12-28T15:15:44;11.20;74.10
13328;DHT22;6733;51.044;3.746;2023-12-28T15:18:11;11.20;74.10
13328;DHT22;6733;51.044;3.746;2023-12-28T15:20:38;11.20;73.90
13328;DHT22;6733;51.044;3.746;2023-12-28T15:23:04;11.20;73.50
13328;DHT22;6733;51.044;3.746;2023-12-28T15:25:30;11.20;73.70
13328;DHT22;6733;51.044;3.746;2023-12-28T15:27:57;11.10;73.40
13328;DHT22;6733;51.044;3.746;2023-12-28T15:30:23;11.10;73.60
13328;DHT22;6733;51.044;3.746;2023-12-28T15:32:49;11.00;73.80
13328;DHT22;6733;51.044;3.746;2023-12-28T15:35:15;11.00;73.80
13328;DHT22;6733;51.044;3.746;2023-12-28T15:37:43;11.10;73.60
13328;DHT22;6733;51.044;3.746;2023-12-28T15:40:09;11.00;73.80
13328;DHT22;6733;51.044;3.746;2023-12-28T15:42:35;11.00;73.90
13328;DHT22;6733;51.044;3.746;2023-12-28T15:45:02;11.00;74.00
13328;DHT22;6733;51.044;3.746;2023-12-28T15:47:28;11.00;74.00
13328;DHT22;6733;51.044;3.746;2023-12-28T15:49:55;11.00;73.90
13328;DHT22;6733;51.044;3.746;2023-12-28T15:52:21;11.00;73.90
13328;DHT22;6733;51.044;3.746;2023-12-28T15:54:47;11.00;74.00
13328;DHT22;6733;51.044;3.746;2023-12-28T15:57:13;11.00;74.00
13328;DHT22;6733;51.044;3.746;2023-12-28T15:59:40;11.00;73.90
13328;DHT22;6733;51.044;3.746;2023-12-28T16:02:06;11.00;73.70
13328;DHT22;6733;51.044;3.746;2023-12-28T16:04:32;11.00;73.80
13328;DHT22;6733;51.044;3.746;2023-12-28T16:06:58;11.00;74.00
13328;DHT22;6733;51.044;3.746;2023-12-28T16:09:24;11.00;73.80
13328;DHT22;6733;51.044;3.746;2023-12-28T16:11:50;11.00;73.90
13328;DHT22;6733;51.044;3.746;2023-12-28T16:14:17;10.90;74.10
13328;DHT22;6733;51.044;3.746;2023-12-28T16:16:45;11.00;74.00
13328;DHT22;6733;51.044;3.746;2023-12-28T16:19:12;11.00;73.70